Time;durP1;ratioP1;P1;durP2;ratioP2;P2;SDS_P1;SDS_P2;PMS_P1;PMS_P2;Temp;Humidity;BMP_temperature;BMP_pressure;BME280_temperature;BME280_humidity;BME280_pressure;Samples;Min_cycle;Max_cycle;Signal;HPM_P1;HPM_P2
2022/10/17 00:01:51;;;;;;;5.10;3.10;;;;;;;;;;5042780;28;20177;-75
2022/10/17 00:04:17;;;;;;;5.67;3.10;;;;;;;;;;5041172;28;20599;-75
2022/10/17 00:06:43;;;;;;;5.57;2.87;;;;;;;;;;5036594;28;20272;-75
2022/10/17 00:09:10;;;;;;;5.87;3.57;;;;;;;;;;5044063;28;20174;-75
2022/10/17 00:11:36;;;;;;;6.53;3.60;;;;;;;;;;5034778;28;20189;-75
2022/10/17 00:14:02;;;;;;;4.63;3.10;;;;;;;;;;5039036;28;20194;-75
2022/10/17 00:16:31;;;;;;;3.90;3.00;;;;;;;;;;5034165;28;20205;-75
2022/10/17 00:18:57;;;;;;;7.27;3.20;;;;;;;;;;5047479;28;20184;-75
2022/10/17 00:21:24;;;;;;;5.30;3.07;;;;;;;;;;5047448;28;20646;-75
2022/10/17 00:23:50;;;;;;;4.80;2.90;;;;;;;;;;5036113;28;20218;-75
2022/10/17 00:26:17;;;;;;;3.73;2.90;;;;;;;;;;5035988;28;20233;-75
2022/10/17 00:28:46;;;;;;;4.73;3.00;;;;;;;;;;5047491;28;20194;-74
2022/10/17 00:31:12;;;;;;;3.63;3.17;;;;;;;;;;5041239;28;20213;-74
2022/10/17 00:33:39;;;;;;;3.23;2.80;;;;;;;;;;5044375;28;20198;-75
2022/10/17 00:36:12;;;;;;;4.93;3.10;;;16.90;99.90;;;;;;5042815;28;20186;-75
2022/10/17 00:38:39;;;;;;;3.20;2.77;;;;;;;;;;5048662;28;20632;-74
2022/10/17 00:41:05;;;;;;;3.70;3.13;;;;;;;;;;5039057;28;20186;-74
2022/10/17 00:43:50;;;;;;;6.20;2.77;;;;;;;;;;5044380;28;20704;-74
2022/10/17 00:46:16;;;;;;;4.33;2.77;;;;;;;;;;5038045;28;20232;-75
2022/10/17 00:48:43;;;;;;;3.93;2.60;;;;;;;;;;5043102;28;20810;-74
2022/10/17 00:51:09;;;;;;;5.57;3.20;;;;;;;;;;5040184;28;20220;-74
2022/10/17 00:53:36;;;;;;;4.80;3.10;;;;;;;;;;5047746;28;20201;-74
2022/10/17 00:56:02;;;;;;;4.53;3.33;;;;;;;;;;5037298;28;20182;-74
2022/10/17 00:58:28;;;;;;;4.63;3.17;;;;;;;;;;5041586;28;20193;-74
2022/10/17 01:00:55;;;;;;;3.30;3.00;;;;;;;;;;5040543;28;20656;-74
2022/10/17 01:03:21;;;;;;;5.33;3.33;;;15.90;99.90;;;;;;5039759;28;20202;-74
2022/10/17 01:05:47;;;;;;;5.20;3.40;;;;;;;;;;5039521;28;20954;-74
2022/10/17 01:08:13;;;;;;;6.87;3.30;;;;;;;;;;5043690;28;20197;-74
2022/10/17 01:10:42;;;;;;;4.37;3.30;;;;;;;;;;5048964;28;20234;-74
2022/10/17 01:13:24;;;;;;;4.33;3.13;;;;;;;;;;5044274;28;21857;-75
2022/10/17 01:15:53;;;;;;;5.50;3.67;;;;;;;;;;5040323;28;20686;-74
2022/10/17 01:18:19;;;;;;;6.00;3.40;;;;;;;;;;5042685;28;20185;-74
2022/10/17 01:21:05;;;;;;;6.53;3.40;;;;;;;;;;5041522;28;20272;-74
2022/10/17 01:23:31;;;;;;;5.27;3.47;;;;;;;;;;5043134;28;20249;-74
2022/10/17 01:26:22;;;;;;;10.07;3.17;;;;;;;;;;5040216;28;20178;-75
2022/10/17 01:28:49;;;;;;;5.30;3.00;;;;;;;;;;5039637;28;20650;-75
2022/10/17 01:31:21;;;;;;;5.70;3.50;;;15.80;99.90;;;;;;5036651;28;20186;-74
2022/10/17 01:34:08;;;;;;;6.50;3.00;;;15.50;99.90;;;;;;5061957;28;20251;-74
2022/10/17 01:36:48;;;;;;;4.27;3.10;;;15.50;99.90;;;;;;5039951;28;20573;-75
2022/10/17 01:39:16;;;;;;;5.50;2.80;;;;;;;;;;5058561;28;20192;-75
2022/10/17 01:41:49;;;;;;;5.40;3.40;;;15.50;99.90;;;;;;5040425;28;20185;-75
2022/10/17 01:44:26;;;;;;;3.77;3.13;;;15.50;99.90;;;;;;5037492;28;20216;-75
2022/10/17 01:47:02;;;;;;;5.23;3.20;;;;;;;;;;5041855;28;20201;-75
2022/10/17 01:49:30;;;;;;;6.23;3.17;;;;;;;;;;5045727;28;20576;-75
2022/10/17 01:52:00;;;;;;;4.03;2.73;;;;;;;;;;5037977;28;20186;-75
2022/10/17 01:54:31;;;;;;;5.43;2.90;;;;;;;;;;5045380;28;20292;-75
2022/10/17 01:57:03;;;;;;;4.90;3.10;;;;;;;;;;5045095;28;20189;-75
2022/10/17 01:59:35;;;;;;;2.80;2.60;;;;;;;;;;5047275;28;20228;-75
2022/10/17 02:02:01;;;;;;;5.97;3.33;;;15.50;99.90;;;;;;5040925;28;20193;-75
2022/10/17 02:04:28;;;;;;;3.30;2.90;;;15.40;99.90;;;;;;5045084;28;20210;-75
2022/10/17 02:06:54;;;;;;;3.80;3.33;;;15.40;99.90;;;;;;5044614;28;20206;-75
2022/10/17 02:09:21;;;;;;;7.17;3.60;;;;;;;;;;5047189;28;20758;-75
2022/10/17 02:12:06;;;;;;;4.93;3.30;;;;;;;;;;5044755;28;20206;-75
2022/10/17 02:14:51;;;;;;;6.50;3.30;;;;;;;;;;5060762;28;20209;-75
2022/10/17 02:17:24;;;;;;;4.70;3.23;;;;;;;;;;5062916;28;20193;-75
2022/10/17 02:19:58;;;;;;;4.13;3.00;;;;;;;;;;5044240;28;20182;-75
2022/10/17 02:22:32;;;;;;;4.47;2.80;;;;;;;;;;5062977;28;20190;-75
2022/10/17 02:25:04;;;;;;;4.93;3.20;;;;;;;;;;5043958;28;20196;-75
2022/10/17 02:27:42;;;;;;;6.47;3.30;;;;;;;;;;5060958;28;20711;-75
2022/10/17 02:30:09;;;;;;;4.90;3.50;;;;;;;;;;5044644;28;20236;-75
2022/10/17 02:32:42;;;;;;;7.03;3.20;;;;;;;;;;5041251;28;20194;-75
2022/10/17 02:35:09;;;;;;;6.07;2.97;;;;;;;;;;5037019;28;20174;-75
2022/10/17 02:37:36;;;;;;;4.47;2.97;;;;;;;;;;5044318;28;20190;-75
2022/10/17 02:40:04;;;;;;;3.30;3.00;;;;;;;;;;5041123;28;20182;-75
2022/10/17 02:42:31;;;;;;;4.07;3.40;;;;;;;;;;5046949;28;20215;-75
2022/10/17 02:45:00;;;;;;;6.33;3.10;;;;;;;;;;5048545;28;20182;-74
2022/10/17 02:47:45;;;;;;;3.00;2.70;;;;;;;;;;5046662;28;20218;-75
2022/10/17 02:50:11;;;;;;;5.30;3.20;;;;;;;;;;5046080;28;20186;-75
2022/10/17 02:52:38;;;;;;;5.83;3.07;;;;;;;;;;5046734;28;20221;-75
2022/10/17 02:55:05;;;;;;;4.37;3.27;;;;;;;;;;5044408;28;20185;-75
2022/10/17 02:57:36;;;;;;;3.33;2.93;;;;;;;;;;5042549;28;20183;-75
2022/10/17 03:00:04;;;;;;;5.33;3.10;;;;;;;;;;5042742;28;20251;-74
2022/10/17 03:02:38;;;;;;;6.93;3.30;;;;;;;;;;5042711;28;20197;-75
2022/10/17 03:05:05;;;;;;;5.53;3.17;;;;;;;;;;5035683;28;20182;-75
2022/10/17 03:07:31;;;;;;;4.80;3.30;;;;;;;;;;5040208;28;20202;-75
2022/10/17 03:09:58;;;;;;;4.10;3.07;;;;;;;;;;5041778;28;20269;-75
2022/10/17 03:12:24;;;;;;;4.90;3.30;;;;;;;;;;5042676;28;20657;-75
2022/10/17 03:14:51;;;;;;;3.67;3.37;;;;;;;;;;5043764;28;20182;-74
2022/10/17 03:17:18;;;;;;;5.33;3.10;;;;;;;;;;5046579;28;20550;-75
2022/10/17 03:19:44;;;;;;;3.20;2.83;;;;;;;;;;5044731;28;20221;-75
2022/10/17 03:22:11;;;;;;;5.63;2.97;;;;;;;;;;5039324;28;20195;-75
2022/10/17 03:24:38;;;;;;;5.03;3.10;;;;;;;;;;5049013;28;20509;-75
2022/10/17 03:27:05;;;;;;;3.33;3.00;;;;;;;;;;5041332;28;20276;-75
2022/10/17 03:29:31;;;;;;;4.77;2.93;;;;;;;;;;5044511;28;20549;-75
2022/10/17 03:31:57;;;;;;;2.80;2.60;;;;;;;;;;5044325;28;20814;-75
2022/10/17 03:34:24;;;;;;;5.70;2.73;;;;;;;;;;5043744;28;20201;-75
2022/10/17 03:36:51;;;;;;;3.90;2.70;;;;;;;;;;5041954;28;20190;-75
2022/10/17 03:39:18;;;;;;;5.47;2.80;;;;;;;;;;5042631;28;20190;-75
2022/10/17 03:41:44;;;;;;;4.07;2.90;;;;;;;;;;5028831;28;20190;-75
2022/10/17 03:44:10;;;;;;;3.60;3.10;;;;;;;;;;5039214;28;20561;-75
2022/10/17 03:46:37;;;;;;;8.60;3.00;;;;;;;;;;5041454;28;20939;-75
2022/10/17 03:49:03;;;;;;;4.57;3.30;;;;;;;;;;5043998;28;20315;-75
2022/10/17 03:51:30;;;;;;;3.57;3.00;;;;;;;;;;5045384;28;20237;-75
2022/10/17 03:54:01;;;;;;;8.63;3.20;;;;;;;;;;5043388;28;20976;-75
2022/10/17 03:56:28;;;;;;;3.13;2.83;;;;;;;;;;5044880;28;20277;-75
2022/10/17 03:58:59;;;;;;;4.40;3.30;;;;;;;;;;5036007;28;20192;-75
2022/10/17 04:01:27;;;;;;;5.00;2.90;;;;;;;;;;5028523;28;20200;-75
2022/10/17 04:03:56;;;;;;;4.83;3.13;;;;;;;;;;5046783;28;20306;-74
2022/10/17 04:06:23;;;;;;;5.63;3.37;;;;;;;;;;5026162;28;20315;-75
2022/10/17 04:08:49;;;;;;;5.27;3.10;;;;;;;;;;5058167;28;20217;-75
2022/10/17 04:11:21;;;;;;;3.30;3.00;;;;;;;;;;5038602;28;20178;-75
2022/10/17 04:13:52;;;;;;;4.97;3.23;;;;;;;;;;5046480;28;20298;-75
2022/10/17 04:16:18;;;;;;;4.15;3.55;;;;;;;;;;5025459;28;21117;-75
2022/10/17 04:18:55;;;;;;;5.67;3.40;;;;;;;;;;5037894;28;20222;-75
2022/10/17 04:21:28;;;;;;;6.93;3.30;;;;;;;;;;5045024;28;20177;-75
2022/10/17 04:23:55;;;;;;;4.97;3.43;;;;;;;;;;5043287;28;20270;-76
2022/10/17 04:26:35;;;;;;;9.03;3.40;;;;;;;;;;5061344;28;20247;-75
2022/10/17 04:29:01;;;;;;;6.30;3.37;;;;;;;;;;5040489;28;20186;-75
2022/10/17 04:31:28;;;;;;;7.87;3.60;;;;;;;;;;5046151;28;20625;-75
2022/10/17 04:34:04;;;;;;;6.57;3.80;;;;;;;;;;5034683;28;20602;-75
2022/10/17 04:36:30;;;;;;;4.13;3.50;;;;;;;;;;5041028;28;20182;-75
2022/10/17 04:38:56;;;;;;;3.30;3.00;;;;;;;;;;5043650;28;20200;-75
2022/10/17 04:41:23;;;;;;;4.50;3.27;;;;;;;;;;5043652;28;20194;-75
2022/10/17 04:43:49;;;;;;;6.77;3.20;;;;;;;;;;5044384;28;20233;-75
2022/10/17 04:46:15;;;;;;;4.17;3.27;;;;;;;;;;5042677;28;20217;-75
2022/10/17 04:48:42;;;;;;;4.93;3.50;;;;;;;;;;5046100;28;20897;-75
2022/10/17 04:51:11;;;;;;;4.47;3.30;;;;;;;;;;5045195;28;20193;-75
2022/10/17 04:53:44;;;;;;;7.63;3.30;;;15.40;99.90;;;;;;5033632;28;20229;-75
2022/10/17 04:56:16;;;;;;;3.93;3.33;;;15.50;99.90;;;;;;5043519;28;20261;-75
2022/10/17 04:58:44;;;;;;;7.07;3.30;;;15.40;99.90;;;;;;5024443;28;20600;-75
2022/10/17 05:01:13;;;;;;;5.05;3.60;;;15.40;99.90;;;;;;5057889;28;20431;-75
2022/10/17 05:03:41;;;;;;;4.43;3.50;;;;;;;;;;5043386;28;20194;-75
2022/10/17 05:06:08;;;;;;;4.93;3.50;;;;;;;;;;5043596;28;20201;-74
2022/10/17 05:08:36;;;;;;;6.60;3.43;;;;;;;;;;5037130;28;20669;-75
2022/10/17 05:11:03;;;;;;;5.50;3.50;;;;;;;;;;5039689;28;20228;-75
2022/10/17 05:13:29;;;;;;;7.83;3.47;;;;;;;;;;5034377;28;20198;-75
2022/10/17 05:16:00;;;;;;;4.03;3.20;;;;;;;;;;5025571;28;20182;-75
2022/10/17 05:18:27;;;;;;;6.20;3.30;;;;;;;;;;5023414;28;20182;-75
2022/10/17 05:20:53;;;;;;;4.03;3.00;;;;;;;;;;5044178;28;20272;-75
2022/10/17 05:23:19;;;;;;;5.33;3.47;;;;;;;;;;5025263;28;20206;-75
2022/10/17 05:25:45;;;;;;;6.70;3.50;;;;;;;;;;5039744;28;20178;-74
2022/10/17 05:28:12;;;;;;;10.90;3.67;;;;;;;;;;5027657;28;20255;-75
2022/10/17 05:30:40;;;;;;;7.07;3.60;;;;;;;;;;5041005;28;20205;-75
2022/10/17 05:33:08;;;;;;;11.10;3.70;;;;;;;;;;5040646;28;20264;-75
2022/10/17 05:35:34;;;;;;;5.63;3.37;;;;;;;;;;5038246;28;20210;-74
2022/10/17 05:38:00;;;;;;;7.97;3.90;;;;;;;;;;5032327;28;20182;-75
2022/10/17 05:40:28;;;;;;;5.73;3.87;;;;;;;;;;5039627;28;20664;-76
2022/10/17 05:42:55;;;;;;;4.77;3.90;;;;;;;;;;5045247;28;20202;-78
2022/10/17 05:45:22;;;;;;;4.63;3.60;;;;;;;;;;5043508;28;20198;-77
2022/10/17 05:47:48;;;;;;;4.43;3.40;;;;;;;;;;5028422;28;20255;-77
2022/10/17 05:50:16;;;;;;;4.87;4.07;;;;;;;;;;5043120;28;20213;-75
2022/10/17 05:53:04;;;;;;;6.60;3.60;;;14.80;99.90;;;;;;5036920;28;20210;-77
2022/10/17 05:55:35;;;;;;;5.97;3.67;;;;;;;;;;5053524;28;20187;-76
2022/10/17 05:58:01;;;;;;;4.97;4.00;;;;;;;;;;5042335;28;20182;-76
2022/10/17 06:00:33;;;;;;;8.00;4.17;;;;;;;;;;5036859;28;20232;-76
2022/10/17 06:02:58;;;;;;;6.47;3.70;;;14.80;99.90;;;;;;5025742;28;20205;-76
2022/10/17 06:05:24;;;;;;;5.77;3.70;;;14.70;99.90;;;;;;5042502;28;20185;-79
2022/10/17 06:07:53;;;;;;;8.57;3.67;;;;;;;;;;5058015;28;20213;-82
2022/10/17 06:10:22;;;;;;;5.03;3.53;;;;;;;;;;5040004;28;20210;-78
2022/10/17 06:12:48;;;;;;;4.30;3.37;;;14.60;99.90;;;;;;5027931;28;20236;-78
2022/10/17 06:15:15;;;;;;;5.63;3.30;;;;;;;;;;5044771;28;20190;-78
2022/10/17 06:17:44;;;;;;;5.03;3.13;;;;;;;;;;5046691;28;20197;-78
2022/10/17 06:20:10;;;;;;;4.23;3.20;;;;;;;;;;5035462;28;20529;-78
2022/10/17 06:22:36;;;;;;;5.27;3.57;;;;;;;;;;5032857;28;20174;-78
2022/10/17 06:25:07;;;;;;;9.27;4.10;;;;;;;;;;5025074;28;20769;-78
2022/10/17 06:27:33;;;;;;;8.63;4.53;;;;;;;;;;5035846;28;20289;-78
2022/10/17 06:29:59;;;;;;;6.93;3.80;;;14.60;99.90;;;;;;5028385;28;20174;-78
2022/10/17 06:32:27;;;;;;;5.93;3.93;;;14.80;99.90;;;;;;5028744;28;20190;-78
2022/10/17 06:34:53;;;;;;;8.97;3.90;;;14.80;99.90;;;;;;5046268;28;20565;-78
2022/10/17 06:37:19;;;;;;;7.70;3.77;;;;;;;;;;5044415;28;20622;-78
2022/10/17 06:39:46;;;;;;;6.40;4.50;;;14.80;99.90;;;;;;5029423;28;20689;-78
2022/10/17 06:42:15;;;;;;;9.10;4.00;;;14.90;99.90;;;;;;5049265;28;20268;-76
2022/10/17 06:44:47;;;;;;;7.57;4.40;;;14.90;99.90;;;;;;5046733;28;20192;-78
2022/10/17 06:47:29;;;;;;;9.27;4.37;;;14.90;99.90;;;;;;5044621;28;20253;-79
2022/10/17 06:49:58;;;;;;;6.33;4.20;;;14.90;99.90;;;;;;5033254;28;20189;-80
2022/10/17 06:52:31;;;;;;;5.90;4.30;;;;;;;;;;5048470;28;20174;-81
2022/10/17 06:55:26;;;;;;;6.60;4.20;;;15.00;99.90;;;;;;5010623;28;20888;-76
2022/10/17 06:58:07;;;;;;;6.00;4.10;;;15.10;99.90;;;;;;5048081;28;20174;-74
2022/10/17 07:00:43;;;;;;;5.37;4.47;;;15.20;99.90;;;;;;5046106;28;20177;-75
2022/10/17 07:03:11;;;;;;;7.10;4.23;;;15.20;99.90;;;;;;5045336;28;20221;-74
2022/10/17 07:05:36;;;;;;;4.77;4.20;;;15.30;99.90;;;;;;5044517;28;20182;-75
2022/10/17 07:08:04;;;;;;;6.03;4.27;;;;;;;;;;5055093;28;20202;-75
2022/10/17 07:10:36;;;;;;;5.67;4.43;;;;;;;;;;5039690;28;20259;-75
2022/10/17 07:13:03;;;;;;;6.87;4.70;;;15.40;99.90;;;;;;5036410;28;20206;-73
2022/10/17 07:15:31;;;;;;;6.17;4.40;;;15.50;99.90;;;;;;5044685;28;20218;-75
2022/10/17 07:17:57;;;;;;;6.53;4.70;;;15.60;99.90;;;;;;5041547;28;20233;-75
2022/10/17 07:20:23;;;;;;;6.50;4.40;;;15.60;99.90;;;;;;5042957;28;20177;-75
2022/10/17 07:22:49;;;;;;;5.70;4.20;;;15.70;99.90;;;;;;5042475;28;20585;-75
2022/10/17 07:25:15;;;;;;;5.80;4.20;;;15.70;99.90;;;;;;5045960;28;20186;-74
2022/10/17 07:27:50;;;;;;;8.33;4.50;;;15.80;99.90;;;;;;5046071;28;20210;-74
2022/10/17 07:30:17;;;;;;;7.20;4.37;;;15.80;99.90;;;;;;5046241;28;20190;-74
2022/10/17 07:32:53;;;;;;;4.63;4.17;;;15.90;99.90;;;;;;5045825;28;20782;-74
2022/10/17 07:35:20;;;;;;;7.97;4.60;;;15.90;99.90;;;;;;5035380;28;20235;-74
2022/10/17 07:37:46;;;;;;;5.13;4.60;;;16.00;99.90;;;;;;5041645;28;20181;-74
2022/10/17 07:40:13;;;;;;;5.53;4.50;;;16.00;99.90;;;;;;5020446;28;20617;-74
2022/10/17 07:42:39;;;;;;;7.47;4.97;;;16.10;99.90;;;;;;5043115;28;20301;-74
2022/10/17 07:45:05;;;;;;;7.53;4.83;;;16.20;99.90;;;;;;5046883;28;20189;-74
2022/10/17 07:47:34;;;;;;;5.17;4.23;;;;;;;;;;5045791;28;20296;-74
2022/10/17 07:50:04;;;;;;;5.83;4.60;;;;;;;;;;5047044;28;20185;-74
2022/10/17 07:52:30;;;;;;;7.23;4.23;;;16.20;99.90;;;;;;5045319;28;20661;-75
2022/10/17 07:54:56;;;;;;;7.40;4.70;;;16.40;99.90;;;;;;5046552;28;20174;-74
2022/10/17 07:57:22;;;;;;;7.67;4.70;;;16.40;99.90;;;;;;5037378;28;20221;-74
2022/10/17 07:59:50;;;;;;;7.77;4.80;;;;;;;;;;5035630;28;20309;-75
2022/10/17 08:02:23;;;;;;;8.20;4.87;;;;;;;;;;5036982;28;20183;-74
2022/10/17 08:04:50;;;;;;;6.93;4.80;;;16.50;99.90;;;;;;5042838;28;20193;-74
2022/10/17 08:07:16;;;;;;;6.40;4.97;;;16.70;99.90;;;;;;5035595;28;20235;-74
2022/10/17 08:09:43;;;;;;;8.70;5.27;;;;;;;;;;5036686;28;20214;-74
2022/10/17 08:12:09;;;;;;;5.33;4.53;;;;;;;;;;5039205;28;20278;-74
2022/10/17 08:14:36;;;;;;;11.00;4.83;;;;;;;;;;5040662;28;20194;-75
2022/10/17 08:17:01;;;;;;;6.87;4.90;;;16.70;99.90;;;;;;5045832;28;20178;-75
2022/10/17 08:19:27;;;;;;;7.70;5.47;;;17.00;99.90;;;;;;5041567;28;20178;-74
2022/10/17 08:21:53;;;;;;;8.90;5.40;;;;;;;;;;5028055;28;20175;-75
2022/10/17 08:24:20;;;;;;;6.40;5.37;;;;;;;;;;5039606;28;20297;-75
2022/10/17 08:26:45;;;;;;;8.33;5.10;;;17.10;99.90;;;;;;5040018;28;20198;-75
2022/10/17 08:29:15;;;;;;;7.63;5.40;;;17.30;99.90;;;;;;5044923;28;20181;-74
2022/10/17 08:31:42;;;;;;;9.33;5.00;;;;;;;;;;5027958;28;20718;-75
2022/10/17 08:34:08;;;;;;;7.87;4.40;;;;;;;;;;5034317;28;20210;-75
2022/10/17 08:36:35;;;;;;;6.97;4.73;;;17.40;99.90;;;;;;5034481;28;20208;-75
2022/10/17 08:39:02;;;;;;;10.67;4.50;;;17.70;99.90;;;;;;5044421;28;20178;-75
2022/10/17 08:41:36;;;;;;;6.83;4.57;;;17.80;99.90;;;;;;5042576;28;20331;-75
2022/10/17 08:44:05;;;;;;;9.97;4.67;;;17.90;99.90;;;;;;5040368;28;20993;-74
2022/10/17 08:46:35;;;;;;;9.97;4.63;;;;;;;;;;5034676;28;20206;-74
2022/10/17 08:49:02;;;;;;;6.73;4.77;;;;;;;;;;5036207;28;20194;-75
2022/10/17 08:51:32;;;;;;;9.00;4.77;;;;;;;;;;5040294;28;20273;-75
2022/10/17 08:54:05;;;;;;;9.60;7.00;;;;;;;;;;5028123;28;20230;-75
2022/10/17 08:56:40;;;;;;;8.23;5.70;;;;;;;;;;5040447;28;20185;-75
2022/10/17 08:59:11;;;;;;;7.87;4.90;;;;;;;;;;5042423;28;20248;-75
2022/10/17 09:01:37;;;;;;;6.70;5.30;;;;;;;;;;5045325;28;20820;-75
2022/10/17 09:04:22;;;;;;;7.30;4.80;;;;;;;;;;5033470;28;20203;-75
2022/10/17 09:06:59;;;;;;;7.47;4.10;;;;;;;;;;5030690;28;20206;-75
2022/10/17 09:09:39;;;;;;;6.20;4.00;;;;;;;;;;5044571;28;20208;-75
2022/10/17 09:12:14;;;;;;;4.73;3.20;;;;;;;;;;5038866;28;20176;-75
2022/10/17 09:14:51;;;;;;;4.17;3.30;;;;;;;;;;5047147;28;20200;-75
2022/10/17 09:17:25;;;;;;;4.87;3.37;;;;;;;;;;5046223;28;20192;-75
2022/10/17 09:20:00;;;;;;;4.57;3.40;;;;;;;;;;5045697;28;20298;-75
2022/10/17 09:22:34;;;;;;;5.87;3.10;;;19.00;99.90;;;;;;5044951;28;20274;-75
2022/10/17 09:25:05;;;;;;;5.70;3.00;;;19.20;99.90;;;;;;5034082;28;20209;-75
2022/10/17 09:27:34;;;;;;;6.30;3.17;;;;;;;;;;5037882;28;20209;-75
2022/10/17 09:30:20;;;;;;;4.30;2.90;;;;;;;;;;5045363;28;20257;-75
2022/10/17 09:32:46;;;;;;;5.80;2.77;;;;;;;;;;5025377;28;20209;-75
2022/10/17 09:35:13;;;;;;;6.70;3.13;;;;;;;;;;5046805;28;20579;-75
2022/10/17 09:37:40;;;;;;;3.10;2.80;;;;;;;;;;5035614;28;20218;-75
2022/10/17 09:40:12;;;;;;;3.47;3.00;;;;;;;;;;5040677;28;20231;-74
2022/10/17 09:42:39;;;;;;;4.03;3.30;;;;;;;;;;5046709;28;20422;-75
2022/10/17 09:45:15;;;;;;;8.77;3.07;;;;;;;;;;5043801;28;20193;-75
2022/10/17 09:47:50;;;;;;;6.33;3.00;;;;;;;;;;5026720;28;20289;-75
2022/10/17 09:50:27;;;;;;;3.60;2.90;;;19.30;99.90;;;;;;5044337;28;20216;-75
2022/10/17 09:52:54;;;;;;;8.03;2.90;;;19.90;99.90;;;;;;5043109;28;20197;-75
2022/10/17 09:55:25;;;;;;;3.70;3.13;;;;;;;;;;5038030;28;20174;-75
2022/10/17 09:57:53;;;;;;;6.00;3.00;;;;;;;;;;5033556;28;20182;-75
2022/10/17 10:00:40;;;;;;;4.03;3.17;;;;;;;;;;5037642;28;20708;-75
2022/10/17 10:03:12;;;;;;;2.77;2.57;;;;;;;;;;5028940;28;20205;-74
2022/10/17 10:05:38;;;;;;;4.17;2.57;;;;;;;;;;5046650;28;20182;-75
2022/10/17 10:08:15;;;;;;;3.80;2.77;;;;;;;;;;5038130;28;20301;-75
2022/10/17 10:10:42;;;;;;;4.43;2.90;;;;;;;;;;5043263;28;20665;-75
2022/10/17 10:13:14;;;;;;;8.57;3.10;;;;;;;;;;5038018;28;20202;-75
2022/10/17 10:15:42;;;;;;;6.13;2.80;;;;;;;;;;5048298;28;20662;-75
2022/10/17 10:18:27;;;;;;;4.13;2.80;;;;;;;;;;5038093;28;20457;-75
2022/10/17 10:21:12;;;;;;;3.73;2.50;;;;;;;;;;5044482;28;20174;-75
2022/10/17 10:23:40;;;;;;;6.93;2.90;;;;;;;;;;5045529;28;20638;-75
2022/10/17 10:26:26;;;;;;;2.90;2.60;;;;;;;;;;5042057;28;20182;-75
2022/10/17 10:28:52;;;;;;;3.80;2.60;;;;;;;;;;5049632;28;20197;-76
2022/10/17 10:31:25;;;;;;;3.43;2.67;;;;;;;;;;5050129;28;20213;-76
2022/10/17 10:33:51;;;;;;;6.30;2.93;;;;;;;;;;5046794;28;20213;-76
2022/10/17 10:36:21;;;;;;;6.87;2.80;;;;;;;;;;5041365;28;20557;-78
2022/10/17 10:38:55;;;;;;;5.60;2.60;;;;;;;;;;5043320;28;20186;-76
2022/10/17 10:41:21;;;;;;;4.57;2.40;;;;;;;;;;5049461;28;20249;-77
2022/10/17 10:43:50;;;;;;;3.60;2.40;;;19.90;99.90;;;;;;5046701;28;20572;-76
2022/10/17 10:46:18;;;;;;;4.57;2.93;;;21.00;99.90;;;;;;5044434;28;20402;-76
2022/10/17 10:48:58;;;;;;;3.40;2.77;;;21.10;99.90;;;;;;5045974;28;20310;-77
2022/10/17 10:51:41;;;;;;;3.93;2.63;;;21.20;99.90;;;;;;5043451;28;20186;-75
2022/10/17 10:54:24;;;;;;;6.13;3.47;;;21.20;99.90;;;;;;5041998;28;20189;-76
2022/10/17 10:56:52;;;;;;;7.23;2.97;;;21.30;99.90;;;;;;5041661;28;20243;-75
2022/10/17 10:59:31;;;;;;;4.73;2.60;;;;;;;;;;5044369;28;20196;-75
2022/10/17 11:02:10;;;;;;;5.73;2.83;;;;;;;;;;5027965;28;20274;-75
2022/10/17 11:04:59;;;;;;;3.27;2.50;;;;;;;;;;5048759;28;20648;-74
2022/10/17 11:07:29;;;;;;;4.10;2.40;;;;;;;;;;5025298;28;20271;-74
2022/10/17 11:09:58;;;;;;;6.13;2.73;;;;;;;;;;5044132;28;20178;-74
2022/10/17 11:12:27;;;;;;;3.87;2.60;;;;;;;;;;5046171;28;20200;-75
2022/10/17 11:15:03;;;;;;;3.90;2.73;;;;;;;;;;5048312;28;20178;-74
2022/10/17 11:17:36;;;;;;;5.40;2.83;;;;;;;;;;5046384;28;20684;-75
2022/10/17 11:20:09;;;;;;;4.90;2.50;;;;;;;;;;5039109;28;20182;-75
2022/10/17 11:22:41;;;;;;;2.93;2.63;;;;;;;;;;5036929;28;20665;-75
2022/10/17 11:25:19;;;;;;;5.30;2.60;;;;;;;;;;5047536;28;20174;-75
2022/10/17 11:27:45;;;;;;;5.43;2.60;;;;;;;;;;5036350;28;20646;-76
2022/10/17 11:30:13;;;;;;;9.53;2.90;;;;;;;;;;5035689;28;20189;-74
2022/10/17 11:32:42;;;;;;;4.50;2.50;;;;;;;;;;5039300;28;20768;-74
2022/10/17 11:35:23;;;;;;;4.10;2.70;;;;;;;;;;5049085;28;20182;-74
2022/10/17 11:38:19;;;;;;;3.63;2.67;;;;;;;;;;5040531;28;20182;-74
2022/10/17 11:40:47;;;;;;;5.03;2.63;;;;;;;;;;5024959;28;20534;-74
2022/10/17 11:43:22;;;;;;;9.57;2.77;;;;;;;;;;5042944;28;20240;-74
2022/10/17 11:45:51;;;;;;;3.20;2.40;;;;;;;;;;5049536;28;20274;-73
2022/10/17 11:48:23;;;;;;;4.83;2.53;;;;;;;;;;5037781;28;20222;-74
2022/10/17 11:51:07;;;;;;;4.87;2.63;;;;;;;;;;5042740;28;20192;-74
2022/10/17 11:53:57;;;;;;;3.07;2.40;;;;;;;;;;5035835;28;20600;-73
2022/10/17 11:56:33;;;;;;;4.03;2.53;;;;;;;;;;5028493;28;20190;-74
2022/10/17 11:59:12;;;;;;;3.10;2.27;;;;;;;;;;5043688;28;20171;-74
2022/10/17 12:01:45;;;;;;;6.50;2.70;;;;;;;;;;5047917;28;20218;-74
2022/10/17 12:04:12;;;;;;;4.13;2.53;;;;;;;;;;5048969;28;20205;-74
2022/10/17 12:06:47;;;;;;;5.43;2.63;;;;;;;;;;5046187;28;20271;-74
2022/10/17 12:09:20;;;;;;;2.80;2.57;;;;;;;;;;5048725;28;20188;-74
2022/10/17 12:11:56;;;;;;;5.40;2.47;;;;;;;;;;5036016;28;20273;-74
2022/10/17 12:14:42;;;;;;;2.90;2.57;;;;;;;;;;5028803;28;20209;-74
2022/10/17 12:17:27;;;;;;;4.67;2.37;;;;;;;;;;5028368;28;20201;-74
2022/10/17 12:19:54;;;;;;;7.50;2.67;;;;;;;;;;5028738;28;20277;-74
2022/10/17 12:22:22;;;;;;;5.70;2.80;;;;;;;;;;5038159;28;20701;-74
2022/10/17 12:25:01;;;;;;;4.30;2.63;;;;;;;;;;5040666;28;20221;-74
2022/10/17 12:27:33;;;;;;;3.97;2.57;;;;;;;;;;5046176;28;20209;-74
2022/10/17 12:30:19;;;;;;;4.63;2.93;;;;;;;;;;5048526;28;20217;-74
2022/10/17 12:32:54;;;;;;;5.43;2.60;;;;;;;;;;5036239;28;20714;-74
2022/10/17 12:35:22;;;;;;;4.10;2.50;;;;;;;;;;5028522;28;20183;-74
2022/10/17 12:37:48;;;;;;;2.57;2.20;;;;;;;;;;5027445;28;20621;-74
2022/10/17 12:40:46;;;;;;;3.97;2.47;;;;;;;;;;5044455;28;20257;-74
2022/10/17 12:43:15;;;;;;;5.53;2.30;;;;;;;;;;5035924;28;20225;-73
2022/10/17 12:45:47;;;;;;;3.90;2.80;;;;;;;;;;5048006;28;20216;-73
2022/10/17 12:48:33;;;;;;;6.47;2.90;;;;;;;;;;5045825;28;20242;-73
2022/10/17 12:51:16;;;;;;;3.60;2.47;;;;;;;;;;5041771;28;20658;-73
2022/10/17 12:54:01;;;;;;;5.27;2.63;;;;;;;;;;5041255;28;20295;-73
2022/10/17 12:56:41;;;;;;;4.40;2.20;;;;;;;;;;5041974;28;20257;-74
2022/10/17 12:59:27;;;;;;;5.00;2.47;;;;;;;;;;5038783;28;20515;-74
2022/10/17 13:01:58;;;;;;;5.93;2.43;;;;;;;;;;5047504;28;20173;-74
2022/10/17 13:04:25;;;;;;;3.17;2.37;;;;;;;;;;5034936;28;20207;-74
2022/10/17 13:06:53;;;;;;;3.53;2.47;;;;;;;;;;5033383;28;20207;-74
2022/10/17 13:09:23;;;;;;;5.77;2.60;;;;;;;;;;5049754;28;20183;-74
2022/10/17 13:11:50;;;;;;;3.07;2.30;;;;;;;;;;5047550;28;20196;-74
2022/10/17 13:14:19;;;;;;;4.27;2.70;;;;;;;;;;5047370;28;20576;-74
2022/10/17 13:16:56;;;;;;;3.40;2.37;;;;;;;;;;5029870;28;20245;-74
2022/10/17 13:19:24;;;;;;;5.10;2.40;;;;;;;;;;5046240;28;20192;-74
2022/10/17 13:21:54;;;;;;;5.57;2.17;;;;;;;;;;5028189;28;20825;-75
2022/10/17 13:24:21;;;;;;;6.27;2.57;;;;;;;;;;5039033;28;20221;-75
2022/10/17 13:26:47;;;;;;;3.80;2.40;;;;;;;;;;5036745;28;20613;-75
2022/10/17 13:29:14;;;;;;;5.63;2.80;;;;;;;;;;5036085;28;20269;-75
2022/10/17 13:31:42;;;;;;;2.20;2.00;;;;;;;;;;5056032;28;20175;-75
2022/10/17 13:34:17;;;;;;;5.13;2.40;;;;;;;;;;5037918;28;20710;-75
2022/10/17 13:36:44;;;;;;;3.63;2.20;;;;;;;;;;5035865;28;20194;-75
2022/10/17 13:39:13;;;;;;;3.37;2.20;;;;;;;;;;5035337;28;20713;-75
2022/10/17 13:41:40;;;;;;;2.60;2.13;;;;;;;;;;5036141;28;20191;-75
2022/10/17 13:44:13;;;;;;;5.40;2.10;;;;;;;;;;5036218;28;20214;-75
2022/10/17 13:46:40;;;;;;;4.23;2.40;;;;;;;;;;5037084;28;20221;-75
2022/10/17 13:49:21;;;;;;;3.80;2.50;;;;;;;;;;5036609;28;20210;-75
2022/10/17 13:51:49;;;;;;;3.50;2.60;;;;;;;;;;5041843;28;20261;-75
2022/10/17 13:54:41;;;;;;;4.87;2.40;;;;;;;;;;5041774;28;20194;-75
2022/10/17 13:57:19;;;;;;;4.70;2.20;;;;;;;;;;5035363;28;20283;-75
2022/10/17 13:59:46;;;;;;;4.40;2.40;;;;;;;;;;5056787;28;20194;-76
2022/10/17 14:02:33;;;;;;;4.80;2.50;;;;;;;;;;5042822;28;20236;-75
2022/10/17 14:05:19;;;;;;;3.17;2.40;;;;;;;;;;5040558;28;20740;-75
2022/10/17 14:07:51;;;;;;;5.90;2.50;;;;;;;;;;5041174;28;20266;-75
2022/10/17 14:10:20;;;;;;;4.77;2.37;;;;;;;;;;5042080;28;20181;-74
2022/10/17 14:12:46;;;;;;;2.87;2.57;;;;;;;;;;5041098;28;20198;-75
2022/10/17 14:15:13;;;;;;;3.43;2.30;;;;;;;;;;5041497;28;20268;-75
2022/10/17 14:17:40;;;;;;;3.93;2.63;;;;;;;;;;5039582;28;20416;-75
2022/10/17 14:20:07;;;;;;;3.80;2.40;;;;;;;;;;5042869;28;20529;-75
2022/10/17 14:22:34;;;;;;;4.70;2.50;;;;;;;;;;5041103;28;20197;-75
2022/10/17 14:25:01;;;;;;;4.40;2.90;;;;;;;;;;5042359;28;20193;-75
2022/10/17 14:27:28;;;;;;;4.00;2.30;;;;;;;;;;5042553;28;20199;-75
2022/10/17 14:29:56;;;;;;;5.57;2.47;;;;;;;;;;5042976;28;20225;-75
2022/10/17 14:32:23;;;;;;;5.13;2.60;;;;;;;;;;5037376;28;20742;-74
2022/10/17 14:34:52;;;;;;;4.53;2.67;;;;;;;;;;5038501;28;20676;-75
2022/10/17 14:37:27;;;;;;;5.60;2.83;;;;;;;;;;5040933;28;20185;-74
2022/10/17 14:39:56;;;;;;;3.17;2.40;;;;;;;;;;5041831;28;20181;-75